sensor_id;sensor_type;location;lat;lon;timestamp;pressure;altitude;pressure_sealevel;temperature;humidity
42603;BME280;28233;55.748;48.752;2023-04-01T00:00:46;98668.09;;;3.45;87.44
42603;BME280;28233;55.748;48.752;2023-04-01T00:02:49;98674.03;;;3.47;87.45
42603;BME280;28233;55.748;48.752;2023-04-01T00:04:52;98678.38;;;3.48;87.33
42603;BME280;28233;55.748;48.752;2023-04-01T00:06:54;98668.50;;;3.52;87.23
42603;BME280;28233;55.748;48.752;2023-04-01T00:08:57;98668.31;;;3.49;86.62
42603;BME280;28233;55.748;48.752;2023-04-01T00:11:00;98655.69;;;3.39;86.62
42603;BME280;28233;55.748;48.752;2023-04-01T00:13:03;98661.84;;;3.45;86.84
42603;BME280;28233;55.748;48.752;2023-04-01T00:15:08;98663.16;;;3.47;87.04
42603;BME280;28233;55.748;48.752;2023-04-01T00:17:11;98668.59;;;3.47;87.03
42603;BME280;28233;55.748;48.752;2023-04-01T00:19:14;98664.56;;;3.45;87.09
42603;BME280;28233;55.748;48.752;2023-04-01T00:21:18;98661.94;;;3.39;87.41
42603;BME280;28233;55.748;48.752;2023-04-01T00:23:21;98666.56;;;3.39;87.53
42603;BME280;28233;55.748;48.752;2023-04-01T00:25:24;98658.63;;;3.43;87.65
42603;BME280;28233;55.748;48.752;2023-04-01T00:27:27;98652.38;;;3.42;87.25
42603;BME280;28233;55.748;48.752;2023-04-01T00:29:30;98641.59;;;3.37;87.34
42603;BME280;28233;55.748;48.752;2023-04-01T00:31:32;98655.31;;;3.46;87.48
42603;BME280;28233;55.748;48.752;2023-04-01T00:33:35;98649.38;;;3.44;87.46
42603;BME280;28233;55.748;48.752;2023-04-01T00:35:39;98654.31;;;3.42;87.29
42603;BME280;28233;55.748;48.752;2023-04-01T00:37:41;98648.06;;;3.41;87.74
42603;BME280;28233;55.748;48.752;2023-04-01T00:39:44;98645.28;;;3.46;87.73
42603;BME280;28233;55.748;48.752;2023-04-01T00:41:47;98653.19;;;3.43;87.11
42603;BME280;28233;55.748;48.752;2023-04-01T00:43:50;98650.47;;;3.43;87.15
42603;BME280;28233;55.748;48.752;2023-04-01T00:45:53;98640.81;;;3.36;87.29
42603;BME280;28233;55.748;48.752;2023-04-01T00:47:59;98648.34;;;3.39;87.58
42603;BME280;28233;55.748;48.752;2023-04-01T00:50:04;98648.88;;;3.42;87.61
42603;BME280;28233;55.748;48.752;2023-04-01T00:52:08;98647.25;;;3.41;87.68
42603;BME280;28233;55.748;48.752;2023-04-01T00:54:13;98653.50;;;3.41;88.15
42603;BME280;28233;55.748;48.752;2023-04-01T00:56:24;98652.66;;;3.41;87.80
42603;BME280;28233;55.748;48.752;2023-04-01T00:58:31;98645.03;;;3.43;87.69
42603;BME280;28233;55.748;48.752;2023-04-01T01:00:36;98659.38;;;3.48;87.98
42603;BME280;28233;55.748;48.752;2023-04-01T01:02:41;98658.00;;;3.46;88.08
42603;BME280;28233;55.748;48.752;2023-04-01T01:04:45;98653.69;;;3.45;87.51
42603;BME280;28233;55.748;48.752;2023-04-01T01:06:59;98640.22;;;3.39;87.41
42603;BME280;28233;55.748;48.752;2023-04-01T01:11:25;98631.19;;;3.44;88.21
42603;BME280;28233;55.748;48.752;2023-04-01T01:16:14;98637.59;;;3.34;88.48
42603;BME280;28233;55.748;48.752;2023-04-01T01:18:33;98645.41;;;3.36;88.31
42603;BME280;28233;55.748;48.752;2023-04-01T01:23:42;98647.25;;;3.22;89.10
42603;BME280;28233;55.748;48.752;2023-04-01T01:26:19;98646.38;;;3.26;89.40
42603;BME280;28233;55.748;48.752;2023-04-01T01:31:12;98637.72;;;3.24;89.79
42603;BME280;28233;55.748;48.752;2023-04-01T01:35:38;98645.94;;;3.19;89.62
42603;BME280;28233;55.748;48.752;2023-04-01T01:37:45;98634.50;;;3.22;90.28
42603;BME280;28233;55.748;48.752;2023-04-01T01:39:54;98637.19;;;3.22;90.10
42603;BME280;28233;55.748;48.752;2023-04-01T01:42:03;98625.78;;;3.25;89.94
42603;BME280;28233;55.748;48.752;2023-04-01T01:44:08;98624.16;;;3.24;89.95
42603;BME280;28233;55.748;48.752;2023-04-01T01:46:16;98627.69;;;3.25;90.13
42603;BME280;28233;55.748;48.752;2023-04-01T01:48:19;98630.88;;;3.27;90.25
42603;BME280;28233;55.748;48.752;2023-04-01T01:50:23;98625.47;;;3.27;90.45
42603;BME280;28233;55.748;48.752;2023-04-01T01:52:27;98635.22;;;3.28;89.82
42603;BME280;28233;55.748;48.752;2023-04-01T01:54:30;98627.38;;;3.26;90.20
42603;BME280;28233;55.748;48.752;2023-04-01T01:56:34;98623.88;;;3.26;90.56
42603;BME280;28233;55.748;48.752;2023-04-01T01:59:05;98622.47;;;3.28;90.33
42603;BME280;28233;55.748;48.752;2023-04-01T02:01:30;98613.00;;;3.26;90.56
42603;BME280;28233;55.748;48.752;2023-04-01T02:03:35;98622.47;;;3.28;90.69
42603;BME280;28233;55.748;48.752;2023-04-01T02:05:39;98635.53;;;3.26;90.81
42603;BME280;28233;55.748;48.752;2023-04-01T02:07:46;98628.78;;;3.24;90.65
42603;BME280;28233;55.748;48.752;2023-04-01T02:09:50;98629.00;;;3.27;90.95
42603;BME280;28233;55.748;48.752;2023-04-01T02:12:06;98630.31;;;3.30;90.89
42603;BME280;28233;55.748;48.752;2023-04-01T02:18:44;98627.47;;;3.21;91.09
42603;BME280;28233;55.748;48.752;2023-04-01T02:20:48;98631.50;;;3.24;90.88
42603;BME280;28233;55.748;48.752;2023-04-01T02:22:53;98628.19;;;3.27;91.10
42603;BME280;28233;55.748;48.752;2023-04-01T02:25:05;98625.97;;;3.29;91.37
42603;BME280;28233;55.748;48.752;2023-04-01T02:27:09;98627.59;;;3.30;91.11
42603;BME280;28233;55.748;48.752;2023-04-01T02:29:13;98621.38;;;3.29;90.76
42603;BME280;28233;55.748;48.752;2023-04-01T02:31:16;98618.72;;;3.24;90.82
42603;BME280;28233;55.748;48.752;2023-04-01T02:33:21;98630.59;;;3.28;91.54
42603;BME280;28233;55.748;48.752;2023-04-01T02:35:24;98631.41;;;3.29;91.33
42603;BME280;28233;55.748;48.752;2023-04-01T02:37:28;98629.19;;;3.31;91.37
42603;BME280;28233;55.748;48.752;2023-04-01T02:39:30;98620.88;;;3.27;91.06
42603;BME280;28233;55.748;48.752;2023-04-01T02:41:42;98634.44;;;3.27;91.32
42603;BME280;28233;55.748;48.752;2023-04-01T02:43:45;98627.28;;;3.31;91.55
42603;BME280;28233;55.748;48.752;2023-04-01T02:45:48;98626.72;;;3.34;91.30
42603;BME280;28233;55.748;48.752;2023-04-01T02:47:51;98631.91;;;3.31;91.38
42603;BME280;28233;55.748;48.752;2023-04-01T02:49:53;98617.63;;;3.25;91.52
42603;BME280;28233;55.748;48.752;2023-04-01T02:52:00;98621.38;;;3.29;91.55
42603;BME280;28233;55.748;48.752;2023-04-01T02:54:03;98615.94;;;3.29;91.65
42603;BME280;28233;55.748;48.752;2023-04-01T02:56:06;98624.09;;;3.29;91.97
42603;BME280;28233;55.748;48.752;2023-04-01T02:58:09;98626.41;;;3.36;91.67
42603;BME280;28233;55.748;48.752;2023-04-01T03:00:12;98626.13;;;3.37;92.16
42603;BME280;28233;55.748;48.752;2023-04-01T03:02:16;98621.28;;;3.34;92.69
42603;BME280;28233;55.748;48.752;2023-04-01T03:04:19;98618.50;;;3.39;92.43
42603;BME280;28233;55.748;48.752;2023-04-01T03:06:22;98616.84;;;3.38;92.49
42603;BME280;28233;55.748;48.752;2023-04-01T03:08:25;98622.81;;;3.41;92.12
42603;BME280;28233;55.748;48.752;2023-04-01T03:10:27;98627.44;;;3.40;92.50
42603;BME280;28233;55.748;48.752;2023-04-01T03:12:30;98626.63;;;3.39;92.31
42603;BME280;28233;55.748;48.752;2023-04-01T03:14:32;98631.78;;;3.41;92.19
42603;BME280;28233;55.748;48.752;2023-04-01T03:16:35;98614.97;;;3.39;92.26
42603;BME280;28233;55.748;48.752;2023-04-01T03:18:38;98610.53;;;3.43;91.99
42603;BME280;28233;55.748;48.752;2023-04-01T03:20:41;98614.69;;;3.54;91.86
42603;BME280;28233;55.748;48.752;2023-04-01T03:22:43;98607.97;;;3.52;91.15
42603;BME280;28233;55.748;48.752;2023-04-01T03:24:48;98613.75;;;3.45;91.26
42603;BME280;28233;55.748;48.752;2023-04-01T03:26:50;98618.69;;;3.43;91.45
42603;BME280;28233;55.748;48.752;2023-04-01T03:28:54;98619.72;;;3.47;91.44
42603;BME280;28233;55.748;48.752;2023-04-01T03:30:57;98614.28;;;3.47;91.48
42603;BME280;28233;55.748;48.752;2023-04-01T03:33:00;98611.19;;;3.54;90.99
42603;BME280;28233;55.748;48.752;2023-04-01T03:35:03;98621.75;;;3.55;90.68
42603;BME280;28233;55.748;48.752;2023-04-01T03:37:07;98612.50;;;3.56;90.55
42603;BME280;28233;55.748;48.752;2023-04-01T03:39:09;98606.56;;;3.54;90.16
42603;BME280;28233;55.748;48.752;2023-04-01T03:41:14;98612.50;;;3.56;90.18
42603;BME280;28233;55.748;48.752;2023-04-01T03:43:16;98599.53;;;3.53;90.08
42603;BME280;28233;55.748;48.752;2023-04-01T03:45:19;98611.09;;;3.59;89.89
42603;BME280;28233;55.748;48.752;2023-04-01T03:47:22;98611.09;;;3.59;89.38
42603;BME280;28233;55.748;48.752;2023-04-01T03:49:25;98607.88;;;3.57;89.29
42603;BME280;28233;55.748;48.752;2023-04-01T03:51:28;98611.41;;;3.57;88.58
42603;BME280;28233;55.748;48.752;2023-04-01T03:53:31;98623.38;;;3.56;87.96
42603;BME280;28233;55.748;48.752;2023-04-01T03:55:35;98598.13;;;3.56;87.73
42603;BME280;28233;55.748;48.752;2023-04-01T03:57:38;98610.91;;;3.55;87.71
42603;BME280;28233;55.748;48.752;2023-04-01T03:59:41;98612.13;;;3.63;87.17
42603;BME280;28233;55.748;48.752;2023-04-01T04:01:46;98605.38;;;3.60;86.43
42603;BME280;28233;55.748;48.752;2023-04-01T04:03:50;98607.19;;;3.65;86.46
42603;BME280;28233;55.748;48.752;2023-04-01T04:05:53;98604.78;;;3.64;85.86
42603;BME280;28233;55.748;48.752;2023-04-01T04:07:56;98622.09;;;3.68;85.45
42603;BME280;28233;55.748;48.752;2023-04-01T04:09:58;98633.09;;;3.76;85.23
42603;BME280;28233;55.748;48.752;2023-04-01T04:12:01;98623.03;;;3.77;85.14
42603;BME280;28233;55.748;48.752;2023-04-01T04:14:04;98619.97;;;3.78;84.55
42603;BME280;28233;55.748;48.752;2023-04-01T04:16:08;98626.66;;;3.86;84.61
42603;BME280;28233;55.748;48.752;2023-04-01T04:18:12;98618.19;;;3.88;84.21
42603;BME280;28233;55.748;48.752;2023-04-01T04:20:15;98625.44;;;3.92;84.56
42603;BME280;28233;55.748;48.752;2023-04-01T04:22:17;98618.53;;;4.00;84.37
42603;BME280;28233;55.748;48.752;2023-04-01T04:24:20;98644.31;;;4.02;83.83
42603;BME280;28233;55.748;48.752;2023-04-01T04:26:23;98646.19;;;4.02;83.96
42603;BME280;28233;55.748;48.752;2023-04-01T04:28:26;98629.09;;;4.01;84.03
42603;BME280;28233;55.748;48.752;2023-04-01T04:30:34;98638.78;;;4.08;83.92
42603;BME280;28233;55.748;48.752;2023-04-01T04:32:37;98636.56;;;4.10;83.99
42603;BME280;28233;55.748;48.752;2023-04-01T04:34:40;98634.44;;;4.07;83.54
42603;BME280;28233;55.748;48.752;2023-04-01T04:36:43;98635.53;;;4.06;83.32
42603;BME280;28233;55.748;48.752;2023-04-01T04:38:46;98630.31;;;4.09;83.00
42603;BME280;28233;55.748;48.752;2023-04-01T04:40:50;98647.44;;;4.10;83.11
42603;BME280;28233;55.748;48.752;2023-04-01T04:42:52;98637.75;;;4.03;82.56
42603;BME280;28233;55.748;48.752;2023-04-01T04:44:55;98633.94;;;4.05;82.62
42603;BME280;28233;55.748;48.752;2023-04-01T04:46:58;98648.84;;;4.07;83.53
42603;BME280;28233;55.748;48.752;2023-04-01T04:49:01;98644.50;;;4.06;83.16
42603;BME280;28233;55.748;48.752;2023-04-01T04:51:04;98632.03;;;4.05;83.67
42603;BME280;28233;55.748;48.752;2023-04-01T04:53:10;98646.63;;;4.09;83.16
42603;BME280;28233;55.748;48.752;2023-04-01T04:55:12;98646.41;;;4.06;82.99
42603;BME280;28233;55.748;48.752;2023-04-01T04:57:15;98645.00;;;4.08;83.74
42603;BME280;28233;55.748;48.752;2023-04-01T04:59:18;98648.84;;;4.07;83.20
42603;BME280;28233;55.748;48.752;2023-04-01T05:01:22;98647.44;;;4.10;83.84
42603;BME280;28233;55.748;48.752;2023-04-01T05:03:25;98645.22;;;4.12;84.38
42603;BME280;28233;55.748;48.752;2023-04-01T05:05:27;98642.19;;;4.13;84.48
42603;BME280;28233;55.748;48.752;2023-04-01T05:07:30;98647.25;;;4.20;84.28
42603;BME280;28233;55.748;48.752;2023-04-01T05:09:33;98641.78;;;4.20;84.36
42603;BME280;28233;55.748;48.752;2023-04-01T05:11:36;98633.03;;;4.23;84.56
42603;BME280;28233;55.748;48.752;2023-04-01T05:13:39;98644.72;;;4.23;83.55
42603;BME280;28233;55.748;48.752;2023-04-01T05:15:42;98648.16;;;4.29;83.32
42603;BME280;28233;55.748;48.752;2023-04-01T05:17:45;98628.72;;;4.36;83.87
42603;BME280;28233;55.748;48.752;2023-04-01T05:19:48;98630.03;;;4.38;82.71
42603;BME280;28233;55.748;48.752;2023-04-01T05:21:50;98628.91;;;4.39;83.26
42603;BME280;28233;55.748;48.752;2023-04-01T05:23:55;98635.75;;;4.51;82.49
42603;BME280;28233;55.748;48.752;2023-04-01T05:25:58;98628.78;;;4.58;82.53
42603;BME280;28233;55.748;48.752;2023-04-01T05:28:00;98620.53;;;4.63;82.85
42603;BME280;28233;55.748;48.752;2023-04-01T05:30:04;98632.63;;;4.71;82.36
42603;BME280;28233;55.748;48.752;2023-04-01T05:32:08;98616.69;;;4.78;81.61
42603;BME280;28233;55.748;48.752;2023-04-01T05:34:10;98609.19;;;4.84;81.82
42603;BME280;28233;55.748;48.752;2023-04-01T05:36:16;98588.84;;;4.81;80.83
42603;BME280;28233;55.748;48.752;2023-04-01T05:38:19;98589.16;;;4.80;80.58
42603;BME280;28233;55.748;48.752;2023-04-01T05:40:22;98591.56;;;4.81;79.65
42603;BME280;28233;55.748;48.752;2023-04-01T05:42:25;98592.75;;;4.89;80.37
42603;BME280;28233;55.748;48.752;2023-04-01T05:44:27;98598.41;;;4.93;79.40
42603;BME280;28233;55.748;48.752;2023-04-01T05:46:31;98600.31;;;4.92;79.81
42603;BME280;28233;55.748;48.752;2023-04-01T05:48:34;98596.69;;;4.97;79.56
42603;BME280;28233;55.748;48.752;2023-04-01T05:50:40;98590.31;;;5.01;78.99
42603;BME280;28233;55.748;48.752;2023-04-01T05:52:42;98602.81;;;5.02;78.42
42603;BME280;28233;55.748;48.752;2023-04-01T05:54:45;98613.44;;;5.13;78.65
42603;BME280;28233;55.748;48.752;2023-04-01T05:56:48;98602.13;;;5.19;78.00
42603;BME280;28233;55.748;48.752;2023-04-01T05:58:53;98625.59;;;5.29;77.16
42603;BME280;28233;55.748;48.752;2023-04-01T06:01:07;98618.13;;;5.35;77.96
42603;BME280;28233;55.748;48.752;2023-04-01T06:03:16;98615.50;;;5.52;77.88
42603;BME280;28233;55.748;48.752;2023-04-01T06:05:22;98609.13;;;5.57;77.03
42603;BME280;28233;55.748;48.752;2023-04-01T06:07:27;98616.22;;;5.58;76.24
42603;BME280;28233;55.748;48.752;2023-04-01T06:09:30;98607.41;;;5.61;75.69
42603;BME280;28233;55.748;48.752;2023-04-01T06:12:08;98609.25;;;5.51;73.95
42603;BME280;28233;55.748;48.752;2023-04-01T06:16:49;98609.34;;;5.69;74.51
42603;BME280;28233;55.748;48.752;2023-04-01T06:33:38;98579.16;;;6.19;72.18
42603;BME280;28233;55.748;48.752;2023-04-01T06:48:02;98596.88;;;6.39;68.88
42603;BME280;28233;55.748;48.752;2023-04-01T06:50:36;98598.41;;;6.23;69.25
42603;BME280;28233;55.748;48.752;2023-04-01T06:53:18;98604.31;;;6.07;68.14
42603;BME280;28233;55.748;48.752;2023-04-01T06:55:41;98591.03;;;5.92;68.28
42603;BME280;28233;55.748;48.752;2023-04-01T06:57:47;98591.03;;;5.83;68.50
42603;BME280;28233;55.748;48.752;2023-04-01T06:59:54;98589.09;;;5.84;69.41
42603;BME280;28233;55.748;48.752;2023-04-01T07:04:46;98582.84;;;5.83;68.37
42603;BME280;28233;55.748;48.752;2023-04-01T07:06:56;98593.75;;;5.83;68.16
42603;BME280;28233;55.748;48.752;2023-04-01T07:09:06;98591.47;;;5.77;68.01
42603;BME280;28233;55.748;48.752;2023-04-01T07:11:34;98588.47;;;5.87;68.26
42603;BME280;28233;55.748;48.752;2023-04-01T07:13:53;98589.53;;;6.00;65.76
42603;BME280;28233;55.748;48.752;2023-04-01T07:16:12;98593.78;;;5.92;65.93
42603;BME280;28233;55.748;48.752;2023-04-01T07:18:32;98599.66;;;5.85;66.10
42603;BME280;28233;55.748;48.752;2023-04-01T07:20:39;98604.81;;;5.87;66.42
42603;BME280;28233;55.748;48.752;2023-04-01T07:22:54;98597.44;;;5.87;66.71
42603;BME280;28233;55.748;48.752;2023-04-01T07:25:11;98598.06;;;5.84;66.75
42603;BME280;28233;55.748;48.752;2023-04-01T07:27:15;98597.53;;;5.73;66.83
42603;BME280;28233;55.748;48.752;2023-04-01T07:29:18;98610.19;;;5.69;66.82
42603;BME280;28233;55.748;48.752;2023-04-01T07:33:41;98603.09;;;5.68;66.65
42603;BME280;28233;55.748;48.752;2023-04-01T07:43:22;98613.63;;;5.84;67.13
42603;BME280;28233;55.748;48.752;2023-04-01T07:45:54;98624.56;;;5.92;64.77
42603;BME280;28233;55.748;48.752;2023-04-01T07:50:27;98611.41;;;5.86;65.39
42603;BME280;28233;55.748;48.752;2023-04-01T07:55:15;98612.94;;;5.78;64.11
42603;BME280;28233;55.748;48.752;2023-04-01T07:57:34;98626.41;;;5.75;63.97
42603;BME280;28233;55.748;48.752;2023-04-01T08:04:53;98636.09;;;5.89;63.44
42603;BME280;28233;55.748;48.752;2023-04-01T08:07:20;98626.72;;;5.96;64.03
42603;BME280;28233;55.748;48.752;2023-04-01T08:11:57;98639.72;;;5.99;63.11
42603;BME280;28233;55.748;48.752;2023-04-01T08:14:25;98636.50;;;5.97;63.21
42603;BME280;28233;55.748;48.752;2023-04-01T08:16:35;98649.09;;;5.92;63.94
42603;BME280;28233;55.748;48.752;2023-04-01T08:21:03;98642.97;;;5.87;64.71
42603;BME280;28233;55.748;48.752;2023-04-01T08:23:14;98647.00;;;5.89;64.10
42603;BME280;28233;55.748;48.752;2023-04-01T08:25:27;98644.47;;;5.93;63.86
42603;BME280;28233;55.748;48.752;2023-04-01T08:27:40;98661.56;;;5.85;63.45
42603;BME280;28233;55.748;48.752;2023-04-01T08:29:59;98666.41;;;5.88;62.79
42603;BME280;28233;55.748;48.752;2023-04-01T08:32:18;98663.78;;;5.83;62.93
42603;BME280;28233;55.748;48.752;2023-04-01T08:34:39;98673.09;;;5.82;63.31
42603;BME280;28233;55.748;48.752;2023-04-01T08:36:46;98667.03;;;5.85;62.82
42603;BME280;28233;55.748;48.752;2023-04-01T08:38:55;98681.03;;;5.92;62.57
42603;BME280;28233;55.748;48.752;2023-04-01T08:41:00;98670.91;;;5.92;61.67
42603;BME280;28233;55.748;48.752;2023-04-01T08:50:38;98702.91;;;5.78;61.33
42603;BME280;28233;55.748;48.752;2023-04-01T08:53:05;98699.66;;;5.76;61.94
42603;BME280;28233;55.748;48.752;2023-04-01T08:58:20;98713.63;;;5.75;62.19
42603;BME280;28233;55.748;48.752;2023-04-01T09:00:36;98709.34;;;5.60;64.17
42603;BME280;28233;55.748;48.752;2023-04-01T09:12:51;98722.66;;;5.98;66.50
42603;BME280;28233;55.748;48.752;2023-04-01T09:15:41;98717.69;;;6.00;67.40
42603;BME280;28233;55.748;48.752;2023-04-01T09:17:50;98718.78;;;5.99;68.89
42603;BME280;28233;55.748;48.752;2023-04-01T09:23:10;98726.47;;;6.19;69.01
42603;BME280;28233;55.748;48.752;2023-04-01T09:31:05;98722.56;;;6.43;69.89
42603;BME280;28233;55.748;48.752;2023-04-01T09:35:39;98734.47;;;6.47;65.68
42603;BME280;28233;55.748;48.752;2023-04-01T09:40:17;98734.00;;;6.53;64.23
42603;BME280;28233;55.748;48.752;2023-04-01T09:44:48;98737.47;;;6.76;62.91
42603;BME280;28233;55.748;48.752;2023-04-01T09:52:14;98735.06;;;7.32;58.46
42603;BME280;28233;55.748;48.752;2023-04-01T09:54:56;98723.66;;;7.39;57.85
42603;BME280;28233;55.748;48.752;2023-04-01T09:57:21;98718.53;;;7.46;57.98
42603;BME280;28233;55.748;48.752;2023-04-01T10:08:39;98740.22;;;7.43;56.61
42603;BME280;28233;55.748;48.752;2023-04-01T10:16:55;98762.25;;;7.46;56.65
42603;BME280;28233;55.748;48.752;2023-04-01T10:53:47;98790.56;;;6.93;57.25
42603;BME280;28233;55.748;48.752;2023-04-01T10:58:59;98806.72;;;6.81;57.83
42603;BME280;28233;55.748;48.752;2023-04-01T11:10:32;98813.75;;;6.73;56.77
42603;BME280;28233;55.748;48.752;2023-04-01T11:22:46;98852.47;;;7.06;55.76
42603;BME280;28233;55.748;48.752;2023-04-01T11:39:17;98853.28;;;7.55;55.06
42603;BME280;28233;55.748;48.752;2023-04-01T11:41:35;98850.72;;;7.59;55.45
42603;BME280;28233;55.748;48.752;2023-04-01T11:44:26;98861.63;;;7.50;54.93
42603;BME280;28233;55.748;48.752;2023-04-01T11:54:27;98882.69;;;7.50;55.61
42603;BME280;28233;55.748;48.752;2023-04-01T12:10:27;98885.59;;;7.13;56.48
42603;BME280;28233;55.748;48.752;2023-04-01T12:12:37;98893.66;;;7.18;56.43
42603;BME280;28233;55.748;48.752;2023-04-01T12:15:12;98894.66;;;7.23;56.46
42603;BME280;28233;55.748;48.752;2023-04-01T12:22:23;98926.31;;;7.24;56.17
42603;BME280;28233;55.748;48.752;2023-04-01T12:24:59;98912.63;;;7.24;56.78
42603;BME280;28233;55.748;48.752;2023-04-01T12:35:30;98933.91;;;7.04;57.16
42603;BME280;28233;55.748;48.752;2023-04-01T12:39:51;98947.47;;;6.87;57.76
42603;BME280;28233;55.748;48.752;2023-04-01T12:44:37;98946.34;;;6.88;58.43
42603;BME280;28233;55.748;48.752;2023-04-01T12:49:49;98944.41;;;6.88;58.36
42603;BME280;28233;55.748;48.752;2023-04-01T13:01:25;98964.09;;;6.99;58.75
42603;BME280;28233;55.748;48.752;2023-04-01T13:03:42;98971.50;;;6.98;58.37
42603;BME280;28233;55.748;48.752;2023-04-01T13:08:18;98977.88;;;6.94;58.19
42603;BME280;28233;55.748;48.752;2023-04-01T13:10:27;98984.72;;;6.83;58.50
42603;BME280;28233;55.748;48.752;2023-04-01T13:17:58;98987.88;;;6.76;58.96
42603;BME280;28233;55.748;48.752;2023-04-01T13:22:28;98979.97;;;6.74;59.25
42603;BME280;28233;55.748;48.752;2023-04-01T13:24:59;98991.91;;;6.78;59.66
42603;BME280;28233;55.748;48.752;2023-04-01T13:29:25;98985.94;;;6.76;59.54
42603;BME280;28233;55.748;48.752;2023-04-01T13:31:50;98986.13;;;6.80;59.62
42603;BME280;28233;55.748;48.752;2023-04-01T13:34:15;98994.34;;;6.80;59.94
42603;BME280;28233;55.748;48.752;2023-04-01T13:39:35;99006.56;;;6.83;60.28
42603;BME280;28233;55.748;48.752;2023-04-01T13:46:58;98993.00;;;7.23;59.91
42603;BME280;28233;55.748;48.752;2023-04-01T13:49:17;98990.59;;;7.92;58.25
42603;BME280;28233;55.748;48.752;2023-04-01T13:53:55;99011.88;;;8.96;54.83
42603;BME280;28233;55.748;48.752;2023-04-01T14:07:59;99016.59;;;10.79;50.54
42603;BME280;28233;55.748;48.752;2023-04-01T14:19:40;99022.31;;;11.28;47.44
42603;BME280;28233;55.748;48.752;2023-04-01T14:22:25;99028.16;;;11.27;47.32
42603;BME280;28233;55.748;48.752;2023-04-01T14:29:46;99025.78;;;10.83;47.98
42603;BME280;28233;55.748;48.752;2023-04-01T14:32:30;99025.00;;;10.83;48.58
42603;BME280;28233;55.748;48.752;2023-04-01T14:37:01;99038.66;;;11.12;47.95
42603;BME280;28233;55.748;48.752;2023-04-01T14:39:38;99040.84;;;11.19;47.97
42603;BME280;28233;55.748;48.752;2023-04-01T14:46:51;99044.75;;;11.51;47.44
42603;BME280;28233;55.748;48.752;2023-04-01T14:51:39;99046.25;;;11.61;47.02
42603;BME280;28233;55.748;48.752;2023-04-01T14:54:04;99053.78;;;11.52;47.50
42603;BME280;28233;55.748;48.752;2023-04-01T14:56:08;99059.03;;;11.45;47.97
42603;BME280;28233;55.748;48.752;2023-04-01T14:58:16;99064.41;;;11.08;48.00
42603;BME280;28233;55.748;48.752;2023-04-01T15:00:20;99070.09;;;10.61;49.00
42603;BME280;28233;55.748;48.752;2023-04-01T15:07:02;99072.91;;;9.49;52.12
42603;BME280;28233;55.748;48.752;2023-04-01T15:19:28;99097.31;;;8.01;55.97
42603;BME280;28233;55.748;48.752;2023-04-01T15:21:59;99100.91;;;7.79;56.79
42603;BME280;28233;55.748;48.752;2023-04-01T15:24:21;99114.91;;;7.55;57.27
42603;BME280;28233;55.748;48.752;2023-04-01T15:29:02;99128.59;;;7.32;57.88
42603;BME280;28233;55.748;48.752;2023-04-01T15:31:10;99127.50;;;7.19;58.12
42603;BME280;28233;55.748;48.752;2023-04-01T15:34:20;99122.56;;;7.08;59.06
42603;BME280;28233;55.748;48.752;2023-04-01T15:41:27;99124.63;;;6.66;60.61
42603;BME280;28233;55.748;48.752;2023-04-01T15:45:48;99130.88;;;6.52;60.73
42603;BME280;28233;55.748;48.752;2023-04-01T15:53:10;99140.88;;;6.29;62.32
42603;BME280;28233;55.748;48.752;2023-04-01T15:55:39;99149.56;;;6.18;62.80
42603;BME280;28233;55.748;48.752;2023-04-01T16:02:47;99151.34;;;5.95;64.38
42603;BME280;28233;55.748;48.752;2023-04-01T16:04:57;99152.22;;;5.90;63.92
42603;BME280;28233;55.748;48.752;2023-04-01T16:11:57;99156.31;;;5.73;65.15
42603;BME280;28233;55.748;48.752;2023-04-01T16:14:24;99155.59;;;5.68;65.48
42603;BME280;28233;55.748;48.752;2023-04-01T16:21:58;99162.41;;;5.51;66.93
42603;BME280;28233;55.748;48.752;2023-04-01T16:24:34;99166.63;;;5.44;67.12
42603;BME280;28233;55.748;48.752;2023-04-01T16:26:55;99153.97;;;5.34;67.25
42603;BME280;28233;55.748;48.752;2023-04-01T16:40:47;99182.81;;;5.35;68.72
42603;BME280;28233;55.748;48.752;2023-04-01T16:47:46;99200.66;;;5.27;69.25
42603;BME280;28233;55.748;48.752;2023-04-01T16:54:48;99195.84;;;5.38;69.18
42603;BME280;28233;55.748;48.752;2023-04-01T16:56:55;99192.22;;;5.43;69.25
42603;BME280;28233;55.748;48.752;2023-04-01T17:01:21;99187.97;;;5.56;68.91
42603;BME280;28233;55.748;48.752;2023-04-01T17:03:36;99178.16;;;5.55;68.61
42603;BME280;28233;55.748;48.752;2023-04-01T17:08:49;99171.66;;;5.69;68.54
42603;BME280;28233;55.748;48.752;2023-04-01T17:13:34;99177.84;;;5.75;68.25
42603;BME280;28233;55.748;48.752;2023-04-01T17:18:26;99180.97;;;5.82;67.81
42603;BME280;28233;55.748;48.752;2023-04-01T17:20:50;99184.22;;;5.84;67.95
42603;BME280;28233;55.748;48.752;2023-04-01T17:23:20;99195.03;;;5.89;67.77
42603;BME280;28233;55.748;48.752;2023-04-01T17:28:04;99202.19;;;5.85;68.25
42603;BME280;28233;55.748;48.752;2023-04-01T17:34:46;99200.53;;;5.70;68.43
42603;BME280;28233;55.748;48.752;2023-04-01T17:39:37;99191.84;;;5.68;68.20
42603;BME280;28233;55.748;48.752;2023-04-01T17:41:49;99203.34;;;5.65;68.80
42603;BME280;28233;55.748;48.752;2023-04-01T17:48:41;99219.19;;;5.63;68.66
42603;BME280;28233;55.748;48.752;2023-04-01T17:51:05;99229.28;;;5.63;68.92
42603;BME280;28233;55.748;48.752;2023-04-01T18:00:29;99234.34;;;5.69;69.04
42603;BME280;28233;55.748;48.752;2023-04-01T18:05:40;99239.22;;;5.72;68.37
42603;BME280;28233;55.748;48.752;2023-04-01T18:10:20;99232.34;;;5.75;68.66
42603;BME280;28233;55.748;48.752;2023-04-01T18:17:41;99252.25;;;5.76;69.01
42603;BME280;28233;55.748;48.752;2023-04-01T18:20:02;99252.25;;;5.76;68.72
42603;BME280;28233;55.748;48.752;2023-04-01T18:22:20;99263.47;;;5.74;68.88
42603;BME280;28233;55.748;48.752;2023-04-01T18:24:33;99262.44;;;5.70;69.01
42603;BME280;28233;55.748;48.752;2023-04-01T18:26:42;99260.88;;;5.64;69.20
42603;BME280;28233;55.748;48.752;2023-04-01T18:28:58;99275.69;;;5.58;69.35
42603;BME280;28233;55.748;48.752;2023-04-01T18:33:18;99276.50;;;5.39;69.63